createdAt,value
2018-03-17T00:01:22.085Z,4.62
2018-03-17T00:03:50.350Z,4.65
2018-03-17T00:06:18.577Z,4.90
2018-03-17T00:08:46.095Z,3.80
2018-03-17T00:11:13.534Z,4.62
2018-03-17T00:13:41.076Z,4.55
2018-03-17T00:16:08.560Z,4.50
2018-03-17T00:18:36.013Z,5.05
2018-03-17T00:21:03.491Z,4.85
2018-03-17T00:23:31.730Z,4.35
2018-03-17T00:25:59.207Z,4.80
2018-03-17T00:28:26.678Z,4.85
2018-03-17T00:30:54.905Z,4.03
2018-03-17T00:33:22.372Z,4.72
2018-03-17T00:35:49.832Z,3.90
2018-03-17T00:38:17.284Z,4.50
2018-03-17T00:40:44.745Z,4.00
2018-03-17T00:43:12.234Z,3.42
2018-03-17T00:45:39.701Z,4.75
2018-03-17T00:48:07.932Z,4.45
2018-03-17T00:50:35.420Z,4.62
2018-03-17T00:53:02.891Z,4.70
2018-03-17T00:55:30.357Z,4.87
2018-03-17T00:57:58.578Z,4.65
2018-03-17T01:00:26.070Z,5.18
2018-03-17T01:02:53.522Z,4.20
2018-03-17T01:05:20.982Z,4.10
2018-03-17T01:07:48.441Z,4.37
2018-03-17T01:10:16.005Z,4.00
2018-03-17T01:12:43.476Z,4.47
2018-03-17T01:15:11.020Z,4.85
2018-03-17T01:17:38.491Z,4.55
2018-03-17T01:20:05.982Z,4.80
2018-03-17T01:22:33.460Z,5.15
2018-03-17T01:25:00.932Z,5.05
2018-03-17T01:27:28.389Z,4.72
2018-03-17T01:29:55.868Z,4.43
2018-03-17T01:32:23.429Z,4.30
2018-03-17T01:34:50.887Z,4.00
2018-03-17T01:37:18.354Z,4.72
2018-03-17T01:39:45.814Z,5.25
2018-03-17T01:42:13.270Z,4.70
2018-03-17T01:44:40.738Z,4.68
2018-03-17T01:47:08.197Z,4.65
2018-03-17T01:49:35.678Z,4.05
2018-03-17T01:52:03.921Z,4.50
2018-03-17T01:54:31.395Z,4.15
2018-03-17T01:56:58.840Z,4.37
2018-03-17T01:59:26.294Z,3.90
2018-03-17T02:01:53.750Z,4.57
2018-03-17T02:04:21.212Z,4.12
2018-03-17T02:06:48.762Z,5.03
2018-03-17T02:09:16.259Z,4.68
2018-03-17T02:11:43.673Z,4.37
2018-03-17T02:14:11.130Z,4.07
2018-03-17T02:16:38.592Z,4.60
2018-03-17T02:19:06.166Z,5.35
2018-03-17T02:21:33.616Z,4.15
2018-03-17T02:24:01.076Z,3.80
2018-03-17T02:29:02.606Z,4.95
2018-03-17T02:31:30.075Z,4.55
2018-03-17T02:33:57.568Z,4.47
2018-03-17T02:36:25.034Z,4.65
2018-03-17T02:38:52.490Z,4.20
2018-03-17T02:41:19.972Z,4.60
2018-03-17T02:43:48.203Z,4.78
2018-03-17T02:46:15.694Z,5.18
2018-03-17T02:48:43.177Z,5.20
2018-03-17T02:51:10.641Z,4.80
2018-03-17T02:53:38.111Z,4.90
2018-03-17T02:56:05.593Z,4.60
2018-03-17T02:58:33.043Z,4.70
2018-03-17T03:01:00.503Z,6.43
2018-03-17T03:03:27.998Z,4.35
2018-03-17T03:05:55.481Z,5.20
2018-03-17T03:08:23.698Z,4.75
2018-03-17T03:10:51.173Z,4.40
2018-03-17T03:13:18.633Z,5.90
2018-03-17T03:15:46.110Z,5.10
2018-03-17T03:18:13.565Z,4.62
2018-03-17T03:20:41.040Z,5.53
2018-03-17T03:23:09.274Z,5.37
2018-03-17T03:25:36.752Z,4.82
2018-03-17T03:28:04.208Z,4.70
2018-03-17T03:30:31.679Z,4.65
2018-03-17T03:32:59.136Z,4.25
2018-03-17T03:35:26.604Z,4.95
2018-03-17T03:37:54.855Z,4.95
2018-03-17T03:40:22.312Z,5.25
2018-03-17T03:42:49.781Z,4.70
2018-03-17T03:45:17.230Z,5.82
2018-03-17T03:47:44.697Z,5.18
2018-03-17T03:50:12.162Z,5.30
2018-03-17T03:52:39.689Z,5.15
2018-03-17T03:55:07.166Z,5.07
2018-03-17T03:57:34.629Z,5.15
2018-03-17T04:00:02.895Z,4.82
2018-03-17T04:02:30.353Z,5.45
2018-03-17T04:04:57.826Z,5.03
2018-03-17T04:07:25.290Z,4.32
2018-03-17T04:09:52.747Z,5.15
2018-03-17T04:12:20.254Z,4.40
2018-03-17T04:14:47.747Z,4.35
2018-03-17T04:17:15.201Z,3.92
2018-03-17T04:19:42.658Z,5.43
2018-03-17T04:22:10.114Z,4.80
2018-03-17T04:24:37.570Z,5.03
2018-03-17T04:27:05.030Z,5.72
2018-03-17T04:29:32.518Z,4.70
2018-03-17T04:31:59.997Z,4.80
2018-03-17T04:34:28.231Z,4.82
2018-03-17T04:36:55.689Z,5.75
2018-03-17T04:39:23.153Z,5.40
2018-03-17T04:41:50.637Z,5.10
2018-03-17T04:44:18.872Z,5.00
2018-03-17T04:46:46.346Z,5.45
2018-03-17T04:49:13.797Z,4.68
2018-03-17T04:51:41.270Z,5.53
2018-03-17T04:54:08.738Z,4.43
2018-03-17T04:56:36.214Z,5.03
2018-03-17T04:59:04.451Z,5.00
2018-03-17T05:01:31.942Z,4.95
2018-03-17T05:03:59.407Z,5.28
2018-03-17T05:06:27.621Z,4.97
2018-03-17T05:08:55.085Z,5.47
2018-03-17T05:11:22.549Z,5.05
2018-03-17T05:13:50.006Z,4.70
2018-03-17T05:16:17.480Z,5.47
2018-03-17T05:18:44.942Z,5.20
2018-03-17T05:21:12.414Z,5.43
2018-03-17T05:23:39.870Z,5.03
2018-03-17T05:26:07.333Z,5.12
2018-03-17T05:28:34.800Z,4.25
2018-03-17T05:31:03.050Z,5.28
2018-03-17T05:33:30.618Z,5.10
2018-03-17T05:35:58.182Z,5.32
2018-03-17T05:38:25.641Z,5.00
2018-03-17T05:40:53.096Z,5.50
2018-03-17T05:43:20.638Z,5.00
2018-03-17T05:45:48.118Z,5.10
2018-03-17T05:48:16.377Z,5.53
2018-03-17T05:50:43.835Z,5.53
2018-03-17T05:53:11.338Z,5.12
2018-03-17T05:55:39.569Z,5.87
2018-03-17T05:58:07.161Z,4.78
2018-03-17T06:00:35.396Z,7.00
2018-03-17T06:03:02.880Z,4.82
2018-03-17T06:05:30.339Z,6.37
2018-03-17T06:07:57.801Z,5.62
2018-03-17T06:10:25.266Z,5.85
2018-03-17T06:12:52.730Z,5.43
2018-03-17T06:15:20.964Z,5.70
2018-03-17T06:17:48.462Z,6.28
2018-03-17T06:20:15.944Z,5.35
2018-03-17T06:22:44.212Z,6.10
2018-03-17T06:25:12.462Z,5.55
2018-03-17T06:27:39.967Z,6.20
2018-03-17T06:30:08.515Z,6.47
2018-03-17T06:32:35.998Z,4.85
2018-03-17T06:35:04.232Z,6.20
2018-03-17T06:37:31.686Z,5.50
2018-03-17T06:39:59.250Z,5.80
2018-03-17T06:42:26.756Z,5.47
2018-03-17T06:44:54.980Z,6.87
2018-03-17T06:47:22.460Z,5.70
2018-03-17T06:49:49.939Z,5.28
2018-03-17T06:52:18.162Z,6.80
2018-03-17T06:54:45.654Z,6.28
2018-03-17T06:57:13.132Z,5.35
2018-03-17T06:59:41.358Z,5.30
2018-03-17T07:02:08.819Z,6.22
2018-03-17T07:04:36.353Z,6.20
2018-03-17T07:07:03.814Z,7.07
2018-03-17T07:09:31.325Z,5.70
2018-03-17T07:11:58.877Z,6.20
2018-03-17T07:14:26.358Z,6.43
2018-03-17T07:16:54.622Z,6.47
2018-03-17T07:19:22.905Z,6.93
2018-03-17T07:21:51.183Z,6.40
2018-03-17T07:24:18.645Z,6.12
2018-03-17T07:26:46.879Z,7.57
2018-03-17T07:29:14.487Z,5.60
2018-03-17T07:31:42.720Z,6.60
2018-03-17T07:34:10.226Z,5.80
2018-03-17T07:36:38.485Z,6.25
2018-03-17T07:39:05.941Z,5.60
2018-03-17T07:41:33.402Z,4.55
2018-03-17T07:44:00.889Z,5.47
2018-03-17T07:46:28.345Z,5.90
2018-03-17T07:48:56.589Z,5.90
2018-03-17T07:51:24.045Z,4.95
2018-03-17T07:53:51.530Z,6.43
2018-03-17T07:56:18.983Z,6.85
2018-03-17T07:58:47.222Z,7.70
2018-03-17T08:01:14.691Z,12.20
2018-03-17T08:03:42.161Z,16.98
2018-03-17T08:06:09.628Z,8.40
2018-03-17T08:08:38.627Z,13.23
2018-03-17T08:11:06.106Z,8.15
2018-03-17T08:13:33.594Z,7.15
2018-03-17T08:16:01.067Z,5.72
2018-03-17T08:18:28.587Z,6.53
2018-03-17T08:20:56.045Z,4.03
2018-03-17T08:23:23.527Z,4.85
2018-03-17T08:25:50.990Z,4.80
2018-03-17T08:28:18.449Z,6.07
2018-03-17T08:30:45.920Z,6.60
2018-03-17T08:33:13.376Z,4.70
2018-03-17T08:35:40.861Z,5.40
2018-03-17T08:38:08.364Z,5.90
2018-03-17T08:40:35.820Z,5.40
2018-03-17T08:43:03.288Z,5.82
2018-03-17T08:45:30.774Z,5.65
2018-03-17T08:47:58.235Z,5.82
2018-03-17T08:50:25.688Z,5.00
2018-03-17T08:52:53.171Z,5.40
2018-03-17T08:55:20.653Z,4.82
2018-03-17T08:57:48.125Z,4.70
2018-03-17T09:00:16.365Z,5.45
2018-03-17T09:02:43.918Z,5.10
2018-03-17T09:05:12.181Z,5.85
2018-03-17T09:07:39.658Z,5.90
2018-03-17T09:10:07.224Z,5.82
2018-03-17T09:12:35.464Z,5.43
2018-03-17T09:15:02.960Z,4.50
2018-03-17T09:17:31.181Z,4.80
2018-03-17T09:19:58.722Z,4.60
2018-03-17T09:22:26.237Z,5.30
2018-03-17T09:24:53.741Z,4.47
2018-03-17T09:27:21.229Z,5.50
2018-03-17T09:29:48.806Z,5.35
2018-03-17T09:32:16.275Z,4.65
2018-03-17T09:34:43.800Z,7.43
2018-03-17T09:37:12.083Z,6.47
2018-03-17T09:39:39.566Z,5.75
2018-03-17T09:42:07.047Z,4.80
2018-03-17T09:44:34.541Z,5.00
2018-03-17T09:47:02.100Z,4.07
2018-03-17T09:49:29.582Z,5.55
2018-03-17T09:51:57.064Z,6.15
2018-03-17T09:54:24.542Z,5.20
2018-03-17T09:56:52.005Z,5.12
2018-03-17T09:59:20.257Z,7.82
2018-03-17T10:01:47.746Z,4.55
2018-03-17T10:04:16.031Z,4.28
2018-03-17T10:06:44.280Z,4.28
2018-03-17T10:09:11.889Z,5.15
2018-03-17T10:11:39.361Z,4.70
2018-03-17T10:14:06.849Z,5.12
2018-03-17T10:16:34.334Z,4.40
2018-03-17T10:19:02.671Z,4.95
2018-03-17T10:21:30.912Z,4.85
2018-03-17T10:23:58.393Z,4.70
2018-03-17T10:26:25.888Z,4.40
2018-03-17T10:28:53.377Z,4.28
2018-03-17T10:31:21.609Z,4.75
2018-03-17T10:33:49.218Z,4.28
2018-03-17T10:36:17.482Z,4.60
2018-03-17T10:38:44.925Z,4.18
2018-03-17T10:41:12.403Z,4.70
2018-03-17T10:43:40.642Z,4.68
2018-03-17T10:46:08.117Z,4.35
2018-03-17T10:48:36.364Z,4.20
2018-03-17T10:51:03.845Z,4.68
2018-03-17T10:53:31.329Z,4.25
2018-03-17T10:55:58.839Z,4.30
2018-03-17T10:58:26.346Z,4.22
2018-03-17T11:00:53.823Z,4.47
2018-03-17T11:03:21.338Z,3.90
2018-03-17T11:05:48.931Z,5.00
2018-03-17T11:08:17.180Z,4.47
2018-03-17T11:10:44.645Z,4.45
2018-03-17T11:13:12.898Z,5.40
2018-03-17T11:15:40.390Z,4.20
2018-03-17T11:18:08.642Z,4.80
2018-03-17T11:20:36.110Z,5.25
2018-03-17T11:23:03.619Z,5.80
2018-03-17T11:25:31.830Z,4.95
2018-03-17T11:27:59.311Z,4.90
2018-03-17T11:30:27.577Z,5.47
2018-03-17T11:32:55.056Z,5.40
2018-03-17T11:35:22.610Z,5.22
2018-03-17T11:37:50.094Z,4.62
2018-03-17T11:40:18.417Z,5.00
2018-03-17T11:42:45.875Z,4.25
2018-03-17T11:45:13.349Z,4.32
2018-03-17T11:47:42.187Z,3.70
2018-03-17T11:50:09.914Z,4.00
2018-03-17T11:52:37.401Z,3.20
2018-03-17T11:55:05.665Z,3.85
2018-03-17T11:57:33.238Z,3.85
2018-03-17T12:00:01.497Z,3.75
2018-03-17T12:02:28.962Z,3.42
2018-03-17T12:04:57.201Z,3.40
2018-03-17T12:07:24.688Z,3.55
2018-03-17T12:09:52.958Z,3.85
2018-03-17T12:12:20.434Z,3.60
2018-03-17T12:14:48.667Z,3.65
2018-03-17T12:17:16.138Z,3.95
2018-03-17T12:19:43.736Z,4.35
2018-03-17T12:22:11.980Z,3.53
2018-03-17T12:24:39.489Z,4.00
2018-03-17T12:27:07.019Z,4.93
2018-03-17T12:29:35.274Z,3.78
2018-03-17T12:32:02.754Z,3.92
2018-03-17T12:34:31.034Z,3.87
2018-03-17T12:36:58.515Z,3.53
2018-03-17T12:39:26.889Z,3.80
2018-03-17T12:41:54.379Z,4.47
2018-03-17T12:44:21.856Z,4.57
2018-03-17T12:46:49.359Z,4.40
2018-03-17T12:49:17.602Z,4.18
2018-03-17T12:51:45.066Z,4.05
2018-03-17T12:54:12.551Z,4.70
2018-03-17T12:56:40.787Z,3.53
2018-03-17T12:59:08.286Z,4.30
2018-03-17T13:01:36.502Z,3.78
2018-03-17T13:04:03.963Z,4.72
2018-03-17T13:06:31.418Z,3.50
2018-03-17T13:08:58.882Z,4.22
2018-03-17T13:11:26.359Z,4.10
2018-03-17T13:13:53.830Z,4.15
2018-03-17T13:16:21.297Z,3.65
2018-03-17T13:18:48.849Z,4.22
2018-03-17T13:21:16.349Z,4.37
2018-03-17T13:23:43.831Z,3.08
2018-03-17T13:26:11.336Z,3.70
2018-03-17T13:28:38.800Z,3.67
2018-03-17T13:31:07.046Z,3.55
2018-03-17T13:33:34.568Z,3.47
2018-03-17T13:36:13.878Z,3.85
2018-03-17T13:38:42.126Z,3.42
2018-03-17T13:41:09.582Z,3.62
2018-03-17T13:43:38.583Z,5.85
2018-03-17T13:46:06.043Z,4.43
2018-03-17T13:48:33.533Z,3.95
2018-03-17T13:51:01.065Z,4.10
2018-03-17T13:53:28.544Z,4.00
2018-03-17T13:55:56.041Z,3.83
2018-03-17T13:58:23.520Z,3.70
2018-03-17T14:00:51.012Z,3.97
2018-03-17T14:03:18.484Z,3.92
2018-03-17T14:05:46.751Z,3.92
2018-03-17T14:08:14.233Z,4.10
2018-03-17T14:10:42.467Z,3.87
2018-03-17T14:13:09.935Z,4.03
2018-03-17T14:15:37.410Z,3.92
2018-03-17T14:18:05.650Z,3.80
2018-03-17T14:20:33.126Z,4.20
2018-03-17T14:23:00.582Z,4.30
2018-03-17T14:25:28.850Z,3.60
2018-03-17T14:27:56.337Z,3.53
2018-03-17T14:30:24.581Z,3.80
2018-03-17T14:32:52.073Z,3.78
2018-03-17T14:35:20.316Z,3.50
2018-03-17T14:37:47.772Z,4.60
2018-03-17T14:40:15.242Z,4.00
2018-03-17T14:42:42.694Z,3.90
2018-03-17T14:45:10.186Z,3.33
2018-03-17T14:47:37.686Z,4.30
2018-03-17T14:50:05.195Z,4.00
2018-03-17T14:52:32.702Z,3.78
2018-03-17T14:55:00.562Z,4.10
2018-03-17T14:57:28.023Z,3.92
2018-03-17T14:59:55.510Z,4.10
2018-03-17T15:02:22.989Z,4.05
2018-03-17T15:04:50.476Z,4.60
2018-03-17T15:07:18.067Z,4.20
2018-03-17T15:09:45.603Z,3.75
2018-03-17T15:12:13.104Z,3.30
2018-03-17T15:14:40.666Z,3.95
2018-03-17T15:17:08.202Z,3.83
2018-03-17T15:19:35.736Z,4.15
2018-03-17T15:22:04.108Z,3.17
2018-03-17T15:24:31.602Z,3.95
2018-03-17T15:26:59.101Z,3.95
2018-03-17T15:29:26.577Z,3.97
2018-03-17T15:31:54.874Z,3.75
2018-03-17T15:34:23.138Z,4.45
2018-03-17T15:36:51.403Z,4.20
2018-03-17T15:39:18.910Z,3.90
2018-03-17T15:41:46.401Z,4.05
2018-03-17T15:44:13.934Z,4.07
2018-03-17T15:46:41.401Z,3.85
2018-03-17T15:49:08.883Z,4.25
2018-03-17T15:51:36.367Z,5.30
2018-03-17T15:54:04.855Z,3.70
2018-03-17T15:56:33.310Z,3.90
2018-03-17T15:59:00.847Z,4.37
2018-03-17T16:01:28.322Z,4.25
2018-03-17T16:03:55.829Z,4.15
2018-03-17T16:06:24.164Z,6.22
2018-03-17T16:08:51.787Z,3.85
2018-03-17T16:11:19.405Z,4.57
2018-03-17T16:13:47.642Z,4.72
2018-03-17T16:16:15.171Z,4.70
2018-03-17T16:18:42.708Z,3.80
2018-03-17T16:21:10.346Z,4.57
2018-03-17T16:23:37.932Z,3.80
2018-03-17T16:26:06.292Z,4.40
2018-03-17T16:28:33.755Z,4.50
2018-03-17T16:31:01.326Z,4.80
2018-03-17T16:33:29.637Z,3.90
2018-03-17T16:35:57.933Z,3.95
2018-03-17T16:38:25.472Z,3.70
2018-03-17T16:40:53.002Z,4.85
2018-03-17T16:43:20.544Z,4.55
2018-03-17T16:45:48.161Z,3.70
2018-03-17T16:48:15.674Z,5.12
2018-03-17T16:50:43.403Z,3.95
2018-03-17T16:53:10.884Z,4.53
2018-03-17T16:55:39.233Z,4.15
2018-03-17T16:58:06.766Z,4.35
2018-03-17T17:00:34.253Z,4.50
2018-03-17T17:03:01.736Z,3.50
2018-03-17T17:05:29.221Z,4.53
2018-03-17T17:07:58.463Z,4.10
2018-03-17T17:10:26.001Z,4.43
2018-03-17T17:12:53.485Z,4.55
2018-03-17T17:15:20.960Z,3.75
2018-03-17T17:17:48.447Z,4.35
2018-03-17T17:20:15.945Z,4.65
2018-03-17T17:22:43.430Z,3.95
2018-03-17T17:25:10.917Z,4.47
2018-03-17T17:27:38.380Z,4.22
2018-03-17T17:30:05.945Z,4.72
2018-03-17T17:32:33.410Z,4.85
2018-03-17T17:35:01.656Z,4.20
2018-03-17T17:37:29.133Z,3.80
2018-03-17T17:39:56.610Z,4.28
2018-03-17T17:42:24.889Z,4.30
2018-03-17T17:44:52.411Z,4.53
2018-03-17T17:47:19.905Z,4.32
2018-03-17T17:49:48.266Z,5.62
2018-03-17T17:52:17.283Z,4.25
2018-03-17T17:54:45.570Z,4.60
2018-03-17T17:57:13.074Z,4.72
2018-03-17T17:59:40.551Z,4.53
2018-03-17T18:02:08.019Z,4.50
2018-03-17T18:04:35.492Z,4.60
2018-03-17T18:07:03.728Z,4.80
2018-03-17T18:09:31.195Z,4.85
2018-03-17T18:11:58.694Z,4.62
2018-03-17T18:14:26.949Z,4.78
2018-03-17T18:16:54.449Z,4.65
2018-03-17T18:19:21.917Z,5.28
2018-03-17T18:21:49.397Z,4.40
2018-03-17T18:24:16.860Z,5.35
2018-03-17T18:26:44.439Z,4.65
2018-03-17T18:29:11.895Z,4.18
2018-03-17T18:31:39.445Z,5.10
2018-03-17T18:34:06.908Z,5.10
2018-03-17T18:36:34.369Z,5.47
2018-03-17T18:39:01.833Z,5.00
2018-03-17T18:41:29.304Z,4.90
2018-03-17T18:43:56.784Z,5.10
2018-03-17T18:46:24.246Z,5.07
2018-03-17T18:48:51.749Z,4.80
2018-03-17T18:51:19.235Z,4.82
2018-03-17T18:53:46.749Z,4.65
2018-03-17T18:56:14.210Z,5.25
2018-03-17T18:58:41.716Z,5.47
2018-03-17T19:01:09.214Z,5.30
2018-03-17T19:03:36.686Z,6.15
2018-03-17T19:06:04.164Z,5.78
2018-03-17T19:08:32.436Z,5.32
2018-03-17T19:10:59.888Z,5.12
2018-03-17T19:13:27.349Z,4.97
2018-03-17T19:15:54.811Z,5.47
2018-03-17T19:18:22.388Z,5.55
2018-03-17T19:20:49.860Z,6.03
2018-03-17T19:23:18.091Z,5.90
2018-03-17T19:25:45.590Z,5.95
2018-03-17T19:28:13.067Z,5.95
2018-03-17T19:30:41.305Z,5.18
2018-03-17T19:33:08.773Z,6.00
2018-03-17T19:35:36.252Z,5.40
2018-03-17T19:38:04.480Z,5.65
2018-03-17T19:40:31.986Z,5.57
2018-03-17T19:43:00.231Z,5.00
2018-03-17T19:45:27.709Z,5.93
2018-03-17T19:47:55.297Z,8.45
2018-03-17T19:50:23.557Z,5.62
2018-03-17T19:52:51.793Z,6.90
2018-03-17T19:55:19.286Z,5.43
2018-03-17T19:57:46.778Z,6.20
2018-03-17T20:00:14.251Z,5.50
2018-03-17T20:02:41.724Z,5.87
2018-03-17T20:05:09.201Z,6.18
2018-03-17T20:07:36.690Z,5.47
2018-03-17T20:10:04.142Z,6.45
2018-03-17T20:12:32.393Z,5.22
2018-03-17T20:14:59.879Z,5.25
2018-03-17T20:17:27.358Z,5.53
2018-03-17T20:19:55.571Z,5.57
2018-03-17T20:22:23.065Z,5.30
2018-03-17T20:24:50.521Z,5.25
2018-03-17T20:27:17.991Z,5.00
2018-03-17T20:29:46.711Z,4.90
2018-03-17T20:32:14.194Z,5.43
2018-03-17T20:34:41.661Z,5.40
2018-03-17T20:37:09.135Z,5.53
2018-03-17T20:39:36.593Z,5.72
2018-03-17T20:42:04.060Z,5.37
2018-03-17T20:44:31.542Z,5.53
2018-03-17T20:46:59.817Z,5.20
2018-03-17T20:49:28.034Z,5.20
2018-03-17T20:51:55.521Z,4.97
2018-03-17T20:54:22.982Z,5.28
2018-03-17T20:56:50.433Z,5.80
2018-03-17T20:59:17.901Z,5.10
2018-03-17T21:01:45.394Z,5.60
2018-03-17T21:04:12.873Z,4.50
2018-03-17T21:06:40.370Z,5.45
2018-03-17T21:09:07.830Z,5.07
2018-03-17T21:11:36.130Z,5.53
2018-03-17T21:14:04.358Z,4.60
2018-03-17T21:16:31.833Z,4.90
2018-03-17T21:19:00.102Z,5.90
2018-03-17T21:21:27.561Z,6.10
2018-03-17T21:23:55.095Z,4.80
2018-03-17T21:26:22.657Z,5.45
2018-03-17T21:28:50.122Z,5.70
2018-03-17T21:31:17.621Z,5.60
2018-03-17T21:33:45.193Z,6.05
2018-03-17T21:36:13.420Z,5.20
2018-03-17T21:38:40.894Z,5.00
2018-03-17T21:41:08.378Z,6.70
2018-03-17T21:43:35.864Z,6.53
2018-03-17T21:46:03.389Z,5.50
2018-03-17T21:48:30.908Z,4.28
2018-03-17T21:50:58.397Z,5.20
2018-03-17T21:53:25.911Z,5.50
2018-03-17T21:55:53.433Z,5.47
2018-03-17T21:58:20.955Z,6.68
2018-03-17T22:00:49.184Z,5.07
2018-03-17T22:03:16.611Z,6.40
2018-03-17T22:05:44.073Z,5.55
2018-03-17T22:08:11.621Z,5.07
2018-03-17T22:10:39.109Z,5.47
2018-03-17T22:13:07.395Z,5.30
2018-03-17T22:15:34.902Z,5.72
2018-03-17T22:18:02.405Z,5.45
2018-03-17T22:20:30.031Z,6.22
2018-03-17T22:22:59.096Z,6.07
2018-03-17T22:25:26.871Z,6.60
2018-03-17T22:27:54.536Z,5.50
2018-03-17T22:30:22.157Z,5.28
2018-03-17T22:32:49.686Z,5.90
2018-03-17T22:35:17.335Z,5.85
2018-03-17T22:37:44.827Z,6.00
2018-03-17T22:40:12.314Z,5.57
2018-03-17T22:42:40.623Z,5.35
2018-03-17T22:45:08.096Z,5.60
2018-03-17T22:47:35.575Z,5.40
2018-03-17T22:50:03.841Z,6.43
2018-03-17T22:52:31.325Z,6.00
2018-03-17T22:54:58.803Z,6.22
2018-03-17T22:57:26.474Z,5.93
2018-03-17T22:59:54.728Z,7.53
2018-03-17T23:02:22.255Z,6.57
2018-03-17T23:04:49.761Z,5.57
2018-03-17T23:07:18.092Z,7.15
2018-03-17T23:09:45.626Z,6.65
2018-03-17T23:12:13.089Z,6.25
2018-03-17T23:14:40.577Z,6.90
2018-03-17T23:17:08.090Z,5.60
2018-03-17T23:19:35.579Z,5.50
2018-03-17T23:22:03.073Z,8.63
2018-03-17T23:24:30.579Z,9.20
2018-03-17T23:26:58.109Z,8.80
2018-03-17T23:29:25.632Z,16.37
2018-03-17T23:31:53.084Z,8.70
2018-03-17T23:34:20.639Z,7.93
2018-03-17T23:36:48.150Z,6.20
2018-03-17T23:39:16.438Z,6.30
2018-03-17T23:41:43.897Z,6.28
2018-03-17T23:44:11.361Z,6.25
2018-03-17T23:46:38.849Z,6.62
2018-03-17T23:49:06.329Z,6.43
2018-03-17T23:51:33.805Z,6.37
2018-03-17T23:54:01.293Z,5.47
2018-03-17T23:56:28.794Z,7.25
2018-03-17T23:58:56.316Z,7.18
